Time;durP1;ratioP1;P1;durP2;ratioP2;P2;SDS_P1;SDS_P2;PMS_P1;PMS_P2;Temp;Humidity;BMP_temperature;BMP_pressure;BME280_temperature;BME280_humidity;BME280_pressure;Samples;Min_cycle;Max_cycle;Signal;HPM_P1;HPM_P2
2023/01/28 00:00:50;;;;;;;15.43;4.60;;;0.00;99.90;;;;;;4935257;29;20031;-75
2023/01/28 00:03:15;;;;;;;13.35;4.90;;;0.00;99.90;;;;;;4935310;29;20031;-74
2023/01/28 00:05:41;;;;;;;8.13;3.80;;;-0.10;99.90;;;;;;4911921;29;20110;-75
2023/01/28 00:08:07;;;;;;;9.13;3.88;;;-0.10;99.90;;;;;;4916446;29;20491;-75
2023/01/28 00:10:33;;;;;;;11.50;4.60;;;-0.10;99.90;;;;;;4921740;29;20031;-74
2023/01/28 00:12:58;;;;;;;10.32;4.40;;;-0.10;99.90;;;;;;4919939;29;20118;-75
2023/01/28 00:15:24;;;;;;;11.52;4.20;;;-0.10;99.90;;;;;;4919238;29;20447;-75
2023/01/28 00:17:50;;;;;;;10.40;4.53;;;-0.10;99.90;;;;;;4914017;29;20043;-75
2023/01/28 00:20:16;;;;;;;10.88;4.72;;;-0.20;99.90;;;;;;4919478;29;20064;-75
2023/01/28 00:22:48;;;;;;;12.38;4.97;;;-0.20;99.90;;;;;;4918956;29;20077;-75
2023/01/28 00:25:15;;;;;;;11.77;4.63;;;-0.20;99.90;;;;;;4915922;29;20031;-75
2023/01/28 00:27:40;;;;;;;11.30;4.82;;;-0.20;99.90;;;;;;4915647;29;20051;-75
2023/01/28 00:30:07;;;;;;;11.65;5.47;;;-0.20;99.90;;;;;;4905855;29;20039;-74
2023/01/28 00:32:33;;;;;;;15.82;6.55;;;-0.20;99.90;;;;;;4921675;29;20036;-75
2023/01/28 00:34:58;;;;;;;14.85;6.25;;;-0.20;99.90;;;;;;4919460;29;20035;-75
2023/01/28 00:37:24;;;;;;;16.45;6.53;;;-0.10;99.90;;;;;;4921277;29;20110;-74
2023/01/28 00:39:49;;;;;;;13.60;6.15;;;-0.10;99.90;;;;;;4916528;29;20381;-75
2023/01/28 00:42:15;;;;;;;14.48;7.30;;;-0.10;99.90;;;;;;4910565;29;20107;-74
2023/01/28 00:44:41;;;;;;;14.52;6.22;;;-0.20;99.90;;;;;;4921005;29;20135;-75
2023/01/28 00:47:06;;;;;;;16.48;6.45;;;-0.10;99.90;;;;;;4921171;29;20040;-75
2023/01/28 00:49:32;;;;;;;14.07;5.70;;;-0.20;99.90;;;;;;4918523;29;20501;-75
2023/01/28 00:51:58;;;;;;;13.40;6.75;;;-0.20;99.90;;;;;;4919001;29;20456;-75
2023/01/28 00:54:24;;;;;;;9.88;6.10;;;-0.20;99.90;;;;;;4911380;29;20043;-75
2023/01/28 00:56:52;;;;;;;14.20;6.50;;;-0.20;99.90;;;;;;4920543;29;20063;-74
2023/01/28 00:59:18;;;;;;;13.48;6.13;;;-0.20;99.90;;;;;;4919438;29;20126;-75
2023/01/28 01:01:43;;;;;;;13.77;6.07;;;-0.20;99.90;;;;;;4919487;29;20126;-75
2023/01/28 01:04:09;;;;;;;16.17;6.57;;;-0.20;99.90;;;;;;4914976;28;20367;-75
2023/01/28 01:06:38;;;;;;;14.98;6.47;;;-0.20;99.90;;;;;;4900259;29;20032;-75
2023/01/28 01:09:06;;;;;;;16.17;6.63;;;-0.20;99.90;;;;;;4911794;29;20480;-74
2023/01/28 01:11:32;;;;;;;14.77;6.50;;;-0.20;99.90;;;;;;4916684;29;20031;-75
2023/01/28 01:14:00;;;;;;;17.23;6.13;;;-0.10;99.90;;;;;;4918829;29;20059;-75
2023/01/28 01:16:28;;;;;;;14.05;6.00;;;-0.10;99.90;;;;;;4920328;29;20074;-75
2023/01/28 01:18:55;;;;;;;13.23;6.53;;;0.00;99.90;;;;;;4901762;29;20043;-75
2023/01/28 01:21:24;;;;;;;12.00;5.82;;;0.10;99.90;;;;;;4919153;29;20154;-75
2023/01/28 01:23:50;;;;;;;16.80;6.60;;;0.20;99.90;;;;;;4922333;29;20050;-75
2023/01/28 01:26:17;;;;;;;13.73;6.63;;;0.40;99.90;;;;;;4919201;29;20051;-74
2023/01/28 01:28:42;;;;;;;15.40;6.57;;;0.50;99.90;;;;;;4921816;29;20050;-75
2023/01/28 01:31:14;;;;;;;12.18;5.72;;;0.60;99.90;;;;;;4907284;29;20107;-74
2023/01/28 01:33:41;;;;;;;16.15;6.35;;;0.60;99.90;;;;;;4924529;29;20027;-74
2023/01/28 01:36:07;;;;;;;13.40;6.38;;;0.70;99.90;;;;;;4923390;29;20035;-74
2023/01/28 01:38:35;;;;;;;13.40;6.43;;;0.70;99.90;;;;;;4921537;29;20170;-75
2023/01/28 01:41:02;;;;;;;12.85;6.00;;;0.70;99.90;;;;;;4920990;29;20376;-75
2023/01/28 01:44:14;;;;;;;10.45;5.82;;;0.60;99.90;;;;;;4918096;29;20036;-74
2023/01/28 01:46:48;;;;;;;11.23;5.85;;;0.50;99.90;;;;;;4893575;29;20048;-74
2023/01/28 01:49:19;;;;;;;12.60;5.78;;;0.60;99.90;;;;;;4923502;29;20052;-74
2023/01/28 01:51:48;;;;;;;13.48;5.25;;;0.60;99.90;;;;;;4922821;29;20040;-74
2023/01/28 01:54:15;;;;;;;12.88;5.63;;;0.60;99.90;;;;;;4921413;29;20036;-74
2023/01/28 01:56:43;;;;;;;20.25;6.30;;;0.60;99.90;;;;;;4920337;29;20247;-73
2023/01/28 01:59:17;;;;;;;10.07;5.70;;;0.70;99.90;;;;;;4920598;29;20133;-74
2023/01/28 02:01:44;;;;;;;17.98;6.32;;;0.60;99.90;;;;;;4920118;29;20527;-74
2023/01/28 02:04:17;;;;;;;9.82;5.35;;;0.70;99.90;;;;;;4919943;29;20434;-74
2023/01/28 02:06:44;;;;;;;13.43;5.15;;;0.70;99.90;;;;;;4909792;29;20040;-74
2023/01/28 02:09:24;;;;;;;19.08;6.07;;;0.70;99.90;;;;;;4920137;29;20047;-74
2023/01/28 02:11:53;;;;;;;11.85;5.80;;;0.60;99.90;;;;;;4922605;29;20028;-75
2023/01/28 02:14:20;;;;;;;12.18;5.25;;;0.60;99.90;;;;;;4920573;29;20035;-74
2023/01/28 02:16:46;;;;;;;15.60;5.55;;;0.50;99.90;;;;;;4922976;29;20814;-74
2023/01/28 02:19:11;;;;;;;11.10;5.63;;;0.50;99.90;;;;;;4907129;29;20028;-74
2023/01/28 02:22:02;;;;;;;16.00;5.60;;;0.40;99.90;;;;;;4910963;29;20080;-74
2023/01/28 02:24:47;;;;;;;15.48;5.65;;;0.50;99.90;;;;;;4921170;29;20502;-74
2023/01/28 02:27:43;;;;;;;11.40;5.43;;;0.50;99.90;;;;;;4920007;29;20475;-74
2023/01/28 02:30:17;;;;;;;15.27;6.13;;;0.60;99.90;;;;;;4904674;29;20928;-74
2023/01/28 02:32:50;;;;;;;14.52;5.70;;;0.60;99.90;;;;;;4918816;29;20605;-74
2023/01/28 02:35:22;;;;;;;13.35;6.03;;;0.70;99.90;;;;;;4923847;28;20040;-74
2023/01/28 02:37:54;;;;;;;15.13;6.15;;;0.80;99.90;;;;;;4917789;29;20379;-74
2023/01/28 02:40:28;;;;;;;15.05;6.28;;;0.80;99.90;;;;;;4916498;29;20709;-74
2023/01/28 02:42:58;;;;;;;14.32;7.10;;;0.90;99.90;;;;;;4916356;29;20032;-74
2023/01/28 02:48:19;;;;;;;14.77;6.13;;;1.00;99.90;;;;;;4925230;29;20131;-74
2023/01/28 02:51:01;;;;;;;11.80;6.70;;;1.10;99.90;;;;;;4922238;29;20467;-75
2023/01/28 02:53:46;;;;;;;14.70;6.47;;;1.30;99.90;;;;;;4923657;29;20332;-75
2023/01/28 02:56:28;;;;;;;14.30;7.53;;;1.30;99.90;;;;;;4919221;29;20031;-75
2023/01/28 02:59:32;;;;;;;12.77;6.00;;;1.20;99.90;;;;;;4924472;28;20570;-75
2023/01/28 03:02:11;;;;;;;13.13;6.68;;;1.30;99.90;;;;;;4923769;29;20032;-75
2023/01/28 03:04:55;;;;;;;12.90;6.78;;;1.30;99.90;;;;;;4924831;29;20126;-74
2023/01/28 03:07:22;;;;;;;13.80;7.10;;;1.40;99.90;;;;;;4924997;29;20043;-74
2023/01/28 03:09:50;;;;;;;12.68;6.53;;;1.40;99.90;;;;;;4919084;29;20036;-74
2023/01/28 03:37:52;;;;;;;12.75;6.78;;;1.70;99.90;;;;;;4905351;29;20641;-74
2023/01/28 03:40:17;;;;;;;12.50;6.10;;;1.60;99.90;;;;;;4918587;29;20077;-74
2023/01/28 03:42:43;;;;;;;8.80;6.10;;;1.60;99.90;;;;;;4922291;29;20031;-74
2023/01/28 03:45:09;;;;;;;9.77;5.85;;;1.60;99.90;;;;;;4925134;29;20082;-74
2023/01/28 03:47:36;;;;;;;17.25;6.63;;;1.60;99.90;;;;;;4922934;29;20569;-74
2023/01/28 03:50:02;;;;;;;17.85;6.80;;;1.60;99.90;;;;;;4927875;29;20042;-74
2023/01/28 03:52:30;;;;;;;11.77;6.25;;;1.60;99.90;;;;;;4922054;29;20044;-74
2023/01/28 03:54:57;;;;;;;15.35;6.47;;;1.70;99.90;;;;;;4922722;29;20095;-74
2023/01/28 03:57:25;;;;;;;12.18;6.43;;;1.70;99.90;;;;;;4920761;29;20032;-73
2023/01/28 03:59:51;;;;;;;10.38;6.05;;;1.80;99.90;;;;;;4921773;29;20032;-74
2023/01/28 04:02:19;;;;;;;11.80;6.53;;;1.80;99.90;;;;;;4911977;29;20526;-74
2023/01/28 04:04:45;;;;;;;14.00;6.85;;;1.90;99.90;;;;;;4909856;29;20023;-73
2023/01/28 04:07:13;;;;;;;15.52;7.05;;;1.90;99.90;;;;;;4916658;29;20035;-74
2023/01/28 04:09:39;;;;;;;13.52;6.65;;;2.00;99.90;;;;;;4917883;29;20444;-74
2023/01/28 04:12:05;;;;;;;14.98;6.65;;;2.10;99.90;;;;;;4917163;29;20398;-74
2023/01/28 04:14:31;;;;;;;19.60;6.95;;;2.10;99.90;;;;;;4899970;29;20032;-74
2023/01/28 04:16:57;;;;;;;15.73;6.78;;;2.20;99.90;;;;;;4904137;29;20028;-74
2023/01/28 04:19:23;;;;;;;13.00;6.25;;;2.20;99.90;;;;;;4916185;29;20344;-74
2023/01/28 04:21:49;;;;;;;11.85;5.78;;;2.20;99.90;;;;;;4914105;29;20064;-74
2023/01/28 04:24:15;;;;;;;18.20;6.85;;;2.20;99.90;;;;;;4923254;29;20877;-74
2023/01/28 04:26:41;;;;;;;13.15;6.30;;;2.20;99.90;;;;;;4902719;29;20027;-74
2023/01/28 04:29:07;;;;;;;10.65;5.85;;;2.20;99.90;;;;;;4913016;29;20125;-74
2023/01/28 04:31:33;;;;;;;12.13;5.97;;;2.30;99.90;;;;;;4917992;29;20027;-74
2023/01/28 04:33:59;;;;;;;16.17;6.57;;;2.30;99.90;;;;;;4917254;28;20031;-74
2023/01/28 04:36:25;;;;;;;11.98;5.95;;;2.30;99.90;;;;;;4914201;29;20035;-74
2023/01/28 04:38:51;;;;;;;18.70;6.13;;;2.30;99.90;;;;;;4916805;29;20304;-74
2023/01/28 04:41:17;;;;;;;10.45;5.80;;;2.30;99.90;;;;;;4919740;29;20465;-74
2023/01/28 04:43:43;;;;;;;9.90;5.68;;;2.40;99.90;;;;;;4916572;29;20063;-74
2023/01/28 04:46:08;;;;;;;12.45;6.03;;;2.40;99.90;;;;;;4914981;29;20043;-74
2023/01/28 04:48:35;;;;;;;10.80;6.05;;;2.40;99.90;;;;;;4911198;29;20475;-73
2023/01/28 04:51:02;;;;;;;12.40;5.88;;;2.40;99.90;;;;;;4916168;29;20038;-74
2023/01/28 04:53:28;;;;;;;11.15;5.40;;;2.40;99.90;;;;;;4916411;29;20082;-74
2023/01/28 04:55:53;;;;;;;13.45;5.45;;;2.50;99.90;;;;;;4920985;29;20028;-75
2023/01/28 04:58:19;;;;;;;8.68;5.80;;;2.50;99.90;;;;;;4923945;28;20039;-74
2023/01/28 05:00:44;;;;;;;11.68;5.65;;;2.40;99.90;;;;;;4921436;29;20031;-75
2023/01/28 05:03:10;;;;;;;11.50;5.38;;;2.40;99.90;;;;;;4922157;29;20040;-74
2023/01/28 05:05:35;;;;;;;12.90;6.65;;;2.40;99.90;;;;;;4918419;29;20019;-74
2023/01/28 05:08:01;;;;;;;11.15;5.65;;;2.50;99.90;;;;;;4916955;29;20110;-74
2023/01/28 05:10:27;;;;;;;12.15;5.97;;;2.40;99.90;;;;;;4923572;29;20110;-74
2023/01/28 05:12:53;;;;;;;14.05;5.65;;;2.50;99.90;;;;;;4920184;29;20028;-73
2023/01/28 05:15:19;;;;;;;15.75;6.25;;;2.40;99.90;;;;;;4937720;28;20038;-74
2023/01/28 05:17:45;;;;;;;11.65;6.35;;;2.50;99.90;;;;;;4919084;28;20043;-73
2023/01/28 05:20:12;;;;;;;14.32;6.13;;;2.50;99.90;;;;;;4916971;29;20059;-74
2023/01/28 05:22:38;;;;;;;18.58;5.78;;;2.50;99.90;;;;;;4922200;29;20500;-74
2023/01/28 05:25:05;;;;;;;10.15;6.05;;;2.50;99.90;;;;;;4923444;29;20471;-73
2023/01/28 05:27:31;;;;;;;14.77;6.22;;;2.50;99.90;;;;;;4918079;29;20035;-74
2023/01/28 05:29:57;;;;;;;14.73;6.45;;;2.50;99.90;;;;;;4922326;29;20030;-74
2023/01/28 05:32:23;;;;;;;14.35;6.00;;;2.50;99.90;;;;;;4923129;29;20060;-74
2023/01/28 05:34:49;;;;;;;11.45;6.00;;;2.60;99.90;;;;;;4938654;28;20043;-73
2023/01/28 05:37:14;;;;;;;9.73;6.20;;;2.60;99.90;;;;;;4919166;29;20031;-74
2023/01/28 05:39:40;;;;;;;12.10;5.25;;;2.60;99.90;;;;;;4924321;29;20051;-74
2023/01/28 05:42:06;;;;;;;13.48;5.70;;;2.60;99.90;;;;;;4921838;29;20039;-73
2023/01/28 05:44:32;;;;;;;9.48;4.80;;;2.60;99.90;;;;;;4923606;29;20066;-74
2023/01/28 05:46:57;;;;;;;10.70;4.47;;;2.60;99.90;;;;;;4921583;29;20502;-74
2023/01/28 05:49:25;;;;;;;11.30;5.68;;;2.60;99.90;;;;;;4921553;29;20095;-73
2023/01/28 05:51:51;;;;;;;8.60;5.05;;;2.70;99.90;;;;;;4919406;29;20384;-74
2023/01/28 05:54:16;;;;;;;13.00;5.15;;;2.70;99.90;;;;;;4923552;29;20040;-74
2023/01/28 05:56:42;;;;;;;10.75;4.88;;;2.70;99.90;;;;;;4919884;29;20443;-73
2023/01/28 05:59:10;;;;;;;10.00;4.82;;;2.70;99.90;;;;;;4920803;29;20039;-73
2023/01/28 06:01:36;;;;;;;10.85;4.75;;;2.70;99.90;;;;;;4920210;29;20043;-74
2023/01/28 06:04:02;;;;;;;9.50;4.80;;;2.70;99.90;;;;;;4919648;29;20103;-73
2023/01/28 06:06:28;;;;;;;13.55;4.75;;;2.70;99.90;;;;;;4922296;29;20031;-73
2023/01/28 06:08:54;;;;;;;7.32;4.07;;;2.70;99.90;;;;;;4909029;29;20411;-74
2023/01/28 06:11:20;;;;;;;7.05;3.67;;;2.60;99.90;;;;;;4916808;29;20036;-74
2023/01/28 06:13:45;;;;;;;9.98;4.35;;;2.60;99.90;;;;;;4916007;29;20032;-74
2023/01/28 06:16:11;;;;;;;10.60;4.70;;;2.60;99.90;;;;;;4920347;29;20106;-74
2023/01/28 06:18:37;;;;;;;9.63;4.15;;;2.60;99.90;;;;;;4918465;29;20158;-73
2023/01/28 06:21:03;;;;;;;9.07;3.75;;;2.60;99.90;;;;;;4918732;29;20023;-73
2023/01/28 06:23:28;;;;;;;7.05;4.00;;;2.60;99.90;;;;;;4918300;28;21185;-73
2023/01/28 06:25:55;;;;;;;11.65;4.72;;;2.60;99.90;;;;;;4918463;29;20077;-74
2023/01/28 06:28:21;;;;;;;8.95;4.35;;;2.50;99.90;;;;;;4915982;29;20512;-73
2023/01/28 06:30:50;;;;;;;5.65;3.55;;;2.60;99.90;;;;;;4917778;29;20063;-74
2023/01/28 06:33:17;;;;;;;10.15;3.88;;;2.60;99.90;;;;;;4919966;29;20407;-74
2023/01/28 06:35:43;;;;;;;8.45;3.92;;;2.60;99.90;;;;;;4919519;29;20781;-74
2023/01/28 06:38:10;;;;;;;8.10;3.70;;;2.60;99.90;;;;;;4917026;29;20158;-74
2023/01/28 06:40:36;;;;;;;9.80;4.03;;;2.60;99.90;;;;;;4918636;29;20051;-74
2023/01/28 06:43:02;;;;;;;7.03;3.25;;;2.60;99.90;;;;;;4917365;29;20385;-74
2023/01/28 06:45:27;;;;;;;6.60;3.08;;;2.60;99.90;;;;;;4919074;29;20036;-73
2023/01/28 06:47:53;;;;;;;9.48;3.00;;;2.60;99.90;;;;;;4919777;29;20530;-74
2023/01/28 06:50:19;;;;;;;5.88;3.28;;;2.60;99.90;;;;;;4918606;29;20352;-73
2023/01/28 06:52:44;;;;;;;7.88;3.25;;;2.60;99.90;;;;;;4916362;29;20031;-74
2023/01/28 06:55:10;;;;;;;7.15;2.90;;;2.70;99.90;;;;;;4917451;29;20028;-73
2023/01/28 06:57:39;;;;;;;7.75;2.70;;;2.60;99.90;;;;;;4919555;29;20032;-73
2023/01/28 07:00:09;;;;;;;5.05;2.53;;;2.60;99.90;;;;;;4915890;29;20071;-74
2023/01/28 07:02:35;;;;;;;11.23;2.88;;;2.70;99.90;;;;;;4917209;29;21698;-74
2023/01/28 07:05:01;;;;;;;5.90;2.80;;;2.70;99.90;;;;;;4916691;29;20051;-75
2023/01/28 07:07:27;;;;;;;10.73;2.80;;;2.70;99.90;;;;;;4917449;29;20035;-74
2023/01/28 07:09:53;;;;;;;7.30;2.75;;;2.70;99.90;;;;;;4905501;29;20506;-73
2023/01/28 07:12:18;;;;;;;6.00;2.92;;;2.80;99.90;;;;;;4912607;29;20119;-73
2023/01/28 07:14:44;;;;;;;7.38;3.33;;;2.80;99.90;;;;;;4917979;29;20044;-74
2023/01/28 07:17:09;;;;;;;5.40;2.78;;;2.80;99.90;;;;;;4915437;29;20482;-73
2023/01/28 07:19:35;;;;;;;5.40;2.45;;;2.90;99.90;;;;;;4917101;29;20488;-74
2023/01/28 07:22:02;;;;;;;4.28;2.50;;;2.90;99.90;;;;;;4912434;29;20031;-73
2023/01/28 07:24:28;;;;;;;5.10;2.20;;;2.90;99.90;;;;;;4928022;29;20440;-74
2023/01/28 07:26:53;;;;;;;15.23;3.95;;;3.00;99.90;;;;;;4916371;29;20561;-74
2023/01/28 07:29:19;;;;;;;4.85;2.40;;;3.00;99.90;;;;;;4916256;29;20039;-74
2023/01/28 07:31:45;;;;;;;3.40;2.33;;;3.00;99.90;;;;;;4914132;29;20058;-74
2023/01/28 07:34:10;;;;;;;5.57;2.30;;;3.00;99.90;;;;;;4916663;29;20035;-73
2023/01/28 07:36:36;;;;;;;4.88;2.42;;;3.00;99.90;;;;;;4912434;29;20030;-73
2023/01/28 07:39:02;;;;;;;5.32;2.50;;;3.00;99.90;;;;;;4913527;29;20134;-73
2023/01/28 07:41:28;;;;;;;7.93;2.28;;;3.00;99.90;;;;;;4915368;29;20044;-73
2023/01/28 07:43:53;;;;;;;6.03;3.13;;;3.00;99.90;;;;;;4911089;29;20111;-74
2023/01/28 07:46:19;;;;;;;76.80;31.48;;;3.10;99.90;;;;;;4915431;29;20036;-72
2023/01/28 07:48:45;;;;;;;36.05;14.25;;;3.10;99.90;;;;;;4915925;29;20063;-73
2023/01/28 07:51:11;;;;;;;12.90;3.30;;;3.10;99.90;;;;;;4917022;29;20106;-74
2023/01/28 07:53:36;;;;;;;8.23;3.78;;;3.00;99.90;;;;;;4914431;29;20031;-74
2023/01/28 07:56:04;;;;;;;4.63;2.55;;;3.00;99.90;;;;;;4913211;29;20071;-74
2023/01/28 07:58:31;;;;;;;4.07;2.25;;;3.00;99.90;;;;;;4911718;29;20118;-74
2023/01/28 08:01:00;;;;;;;6.60;2.67;;;3.00;99.90;;;;;;4910893;29;20115;-74
2023/01/28 08:03:26;;;;;;;4.53;2.17;;;3.10;99.90;;;;;;4907090;29;20179;-75
2023/01/28 08:05:54;;;;;;;5.72;2.40;;;3.00;99.90;;;;;;4909407;29;20156;-74
2023/01/28 08:08:21;;;;;;;4.45;2.45;;;3.00;99.90;;;;;;4910951;29;20379;-73
2023/01/28 08:10:47;;;;;;;6.13;2.50;;;3.00;99.90;;;;;;4925181;29;20031;-74
2023/01/28 08:13:14;;;;;;;4.97;2.15;;;3.10;99.90;;;;;;4936697;28;20054;-74
2023/01/28 08:15:40;;;;;;;4.75;2.20;;;3.10;99.90;;;;;;4914610;28;20059;-73
2023/01/28 08:18:07;;;;;;;7.03;2.58;;;3.20;99.90;;;;;;4917523;29;20119;-74
2023/01/28 08:20:33;;;;;;;6.75;2.53;;;3.30;99.90;;;;;;4915731;29;20075;-74
2023/01/28 08:23:17;;;;;;;5.57;2.30;;;3.30;99.90;;;;;;4923102;29;20086;-74
2023/01/28 08:25:43;;;;;;;7.82;2.20;;;3.40;99.90;;;;;;4906745;29;20629;-73
2023/01/28 08:28:10;;;;;;;7.88;2.10;;;3.40;99.90;;;;;;4913245;29;20159;-75
2023/01/28 08:30:37;;;;;;;5.22;2.10;;;3.50;99.90;;;;;;4909830;29;20031;-74
2023/01/28 08:33:05;;;;;;;6.78;2.42;;;3.50;99.90;;;;;;4908739;29;20119;-74
2023/01/28 08:35:32;;;;;;;7.55;2.13;;;3.50;99.90;;;;;;4898220;29;20047;-74
2023/01/28 08:37:59;;;;;;;5.35;2.30;;;3.60;99.90;;;;;;4897322;29;20095;-74
2023/01/28 08:40:25;;;;;;;7.30;2.58;;;3.70;99.90;;;;;;4906899;28;20487;-74
2023/01/28 08:42:53;;;;;;;5.65;2.13;;;3.70;99.90;;;;;;4894584;29;20036;-74
2023/01/28 08:45:21;;;;;;;8.55;2.30;;;3.80;99.90;;;;;;4896669;29;20040;-74
2023/01/28 08:48:06;;;;;;;6.10;2.35;;;3.90;99.90;;;;;;4911743;29;20042;-74
2023/01/28 08:50:36;;;;;;;7.35;2.55;;;4.00;99.90;;;;;;4914605;29;20110;-74
2023/01/28 08:53:04;;;;;;;6.85;2.60;;;4.10;99.90;;;;;;4915959;29;20055;-74
2023/01/28 08:55:30;;;;;;;8.35;2.70;;;4.20;99.90;;;;;;4916655;29;20141;-74
2023/01/28 08:57:56;;;;;;;6.80;2.20;;;4.20;99.90;;;;;;4917339;29;20039;-74
2023/01/28 09:00:22;;;;;;;5.45;1.80;;;4.30;99.90;;;;;;4916207;29;20546;-74
2023/01/28 09:02:51;;;;;;;8.65;2.58;;;4.40;99.90;;;;;;4915136;29;20123;-74
2023/01/28 09:05:18;;;;;;;5.30;1.92;;;4.50;99.90;;;;;;4910958;29;20054;-74
2023/01/28 09:07:43;;;;;;;6.68;2.35;;;4.60;99.90;;;;;;4911713;29;20051;-74
2023/01/28 09:10:10;;;;;;;12.02;2.25;;;4.70;99.90;;;;;;4900471;29;20032;-74
2023/01/28 09:12:36;;;;;;;4.30;2.25;;;4.80;99.90;;;;;;4927567;29;20293;-74
2023/01/28 09:15:02;;;;;;;6.60;2.15;;;4.90;99.90;;;;;;4898374;29;20028;-74
2023/01/28 09:17:27;;;;;;;5.95;2.58;;;5.00;99.90;;;;;;4909250;29;20476;-74
2023/01/28 09:19:53;;;;;;;8.10;2.90;;;5.10;99.90;;;;;;4899345;29;20327;-74
2023/01/28 09:22:19;;;;;;;5.47;2.30;;;5.10;99.90;;;;;;4899207;29;20392;-74
2023/01/28 09:24:44;;;;;;;5.45;3.00;;;5.20;99.90;;;;;;4908016;29;20126;-75
2023/01/28 09:27:10;;;;;;;6.60;2.25;;;5.30;99.90;;;;;;4904533;29;20032;-74
2023/01/28 09:29:36;;;;;;;4.80;2.20;;;5.30;99.90;;;;;;4912052;29;20045;-74
2023/01/28 09:32:02;;;;;;;6.53;2.05;;;5.40;99.90;;;;;;4906746;29;20351;-74
2023/01/28 09:34:28;;;;;;;5.30;1.70;;;5.40;99.90;;;;;;4909476;29;20459;-72
2023/01/28 09:36:54;;;;;;;2.45;1.80;;;5.50;99.90;;;;;;4912779;29;20036;-72
2023/01/28 09:39:19;;;;;;;5.13;2.35;;;5.60;99.90;;;;;;4899117;29;20642;-73
2023/01/28 09:42:00;;;;;;;5.00;2.35;;;5.70;99.90;;;;;;4914910;28;20121;-72
2023/01/28 09:44:50;;;;;;;5.88;2.33;;;5.70;99.90;;;;;;4898481;29;20779;-71
2023/01/28 09:47:25;;;;;;;5.97;2.42;;;5.70;97.00;;;;;;4908163;29;20139;-72
2023/01/28 09:49:55;;;;;;;5.15;2.20;;;5.80;97.00;;;;;;4925528;28;20036;-72
2023/01/28 09:52:23;;;;;;;4.55;2.65;;;5.80;93.90;;;;;;4911228;29;20536;-72
2023/01/28 09:54:57;;;;;;;9.27;2.60;;;5.90;90.70;;;;;;4908720;29;20439;-72
2023/01/28 09:57:26;;;;;;;4.40;2.50;;;6.10;91.70;;;;;;4910567;29;20031;-72
2023/01/28 09:59:52;;;;;;;5.68;2.50;;;6.20;93.60;;;;;;4916419;29;20039;-72
2023/01/28 10:02:27;;;;;;;6.22;2.47;;;6.30;85.20;;;;;;4921394;29;20098;-73
2023/01/28 10:05:13;;;;;;;6.13;2.63;;;6.40;86.70;;;;;;4917723;29;20019;-72
2023/01/28 10:08:08;;;;;;;5.68;2.42;;;6.50;90.80;;;;;;4914442;29;20035;-72
2023/01/28 10:10:48;;;;;;;6.78;2.40;;;6.70;82.00;;;;;;4914956;29;20071;-72
2023/01/28 10:13:39;;;;;;;4.93;2.40;;;6.80;83.00;;;;;;4918658;29;20495;-73
2023/01/28 10:16:20;;;;;;;6.97;2.80;;;6.90;84.00;;;;;;4903942;29;20074;-73
2023/01/28 10:18:52;;;;;;;4.60;2.50;;;7.10;80.40;;;;;;4903858;29;20039;-72
2023/01/28 10:21:35;;;;;;;3.72;2.00;;;7.20;74.80;;;;;;4912204;29;20270;-72
2023/01/28 10:24:23;;;;;;;3.22;2.10;;;7.40;71.40;;;;;;4923033;29;20120;-72
2023/01/28 10:26:48;;;;;;;5.05;2.08;;;7.60;73.10;;;;;;4920662;29;20047;-72
2023/01/28 10:29:18;;;;;;;3.28;1.73;;;7.80;72.60;;;;;;4921521;29;20143;-72
2023/01/28 10:31:53;;;;;;;4.55;1.88;;;7.80;69.50;;;;;;4922747;29;20058;-72
2023/01/28 10:34:21;;;;;;;5.18;2.08;;;7.90;69.70;;;;;;4920237;29;20208;-72
2023/01/28 10:36:47;;;;;;;5.13;2.67;;;7.80;66.20;;;;;;4921075;29;20023;-72
2023/01/28 10:39:18;;;;;;;5.65;3.00;;;7.90;65.30;;;;;;4922738;29;20146;-72
2023/01/28 10:41:44;;;;;;;3.83;2.58;;;7.90;66.90;;;;;;4921627;29;20195;-72
2023/01/28 10:44:24;;;;;;;6.35;2.60;;;8.00;67.40;;;;;;4920605;29;20300;-72
2023/01/28 10:46:51;;;;;;;10.05;2.80;;;8.20;66.70;;;;;;4922120;29;20039;-72
2023/01/28 10:49:27;;;;;;;6.15;2.88;;;8.10;61.50;;;;;;4922303;29;20121;-72
2023/01/28 10:51:52;;;;;;;3.42;2.20;;;8.30;62.70;;;;;;4921951;29;20035;-72
2023/01/28 10:54:23;;;;;;;7.72;2.50;;;8.50;62.20;;;;;;4921836;29;20080;-72
2023/01/28 10:57:12;;;;;;;5.22;2.75;;;8.50;59.80;;;;;;4902940;29;20040;-71
2023/01/28 10:59:40;;;;;;;5.22;2.80;;;8.70;60.90;;;;;;4922144;29;20063;-73
2023/01/28 11:02:31;;;;;;;6.72;2.53;;;8.70;59.40;;;;;;4911131;29;20035;-72
2023/01/28 11:05:25;;;;;;;6.38;3.00;;;8.90;57.90;;;;;;4903275;29;20107;-72
2023/01/28 11:08:08;;;;;;;7.18;2.97;;;9.00;58.50;;;;;;4902579;29;20048;-72
2023/01/28 11:10:36;;;;;;;6.45;2.28;;;9.60;56.90;;;;;;4903166;29;20308;-72
2023/01/28 11:13:05;;;;;;;4.00;2.00;;;11.40;51.40;;;;;;4915722;29;20111;-72
2023/01/28 11:15:31;;;;;;;4.50;2.00;;;13.70;45.00;;;;;;4921447;29;20043;-72
2023/01/28 11:18:01;;;;;;;4.07;1.95;;;15.90;40.60;;;;;;4923100;29;20114;-72
2023/01/28 11:20:30;;;;;;;7.20;1.77;;;17.50;36.60;;;;;;4921672;29;20122;-72
2023/01/28 11:22:56;;;;;;;3.25;1.50;;;19.10;33.40;;;;;;4922287;29;20041;-73
2023/01/28 11:25:25;;;;;;;6.38;1.65;;;19.80;31.30;;;;;;4922002;29;20535;-72
2023/01/28 11:27:53;;;;;;;2.42;1.60;;;19.90;30.70;;;;;;4920274;29;20071;-72
2023/01/28 11:30:26;;;;;;;3.72;1.67;;;20.50;31.10;;;;;;4921864;29;20130;-71
2023/01/28 11:33:05;;;;;;;4.65;1.27;;;21.00;30.10;;;;;;4921203;29;20027;-71
2023/01/28 11:35:31;;;;;;;5.43;1.55;;;21.50;28.60;;;;;;4921151;29;20035;-71
2023/01/28 11:37:59;;;;;;;2.58;1.45;;;21.20;28.90;;;;;;4922098;29;20031;-71
2023/01/28 11:40:25;;;;;;;3.47;1.33;;;19.50;29.40;;;;;;4921671;29;20055;-71
2023/01/28 11:42:52;;;;;;;5.25;1.95;;;17.10;33.90;;;;;;4919862;29;20027;-71
2023/01/28 11:45:38;;;;;;;4.43;1.70;;;15.50;35.20;;;;;;4920952;29;20364;-71
2023/01/28 11:48:13;;;;;;;4.10;2.20;;;14.50;39.10;;;;;;4902511;29;20051;-71
2023/01/28 11:51:03;;;;;;;7.07;2.50;;;13.50;42.00;;;;;;4901635;29;20104;-72
2023/01/28 11:53:39;;;;;;;3.58;2.22;;;12.90;43.60;;;;;;4902901;29;20090;-71
2023/01/28 11:56:29;;;;;;;5.78;2.13;;;12.50;44.40;;;;;;4905403;29;20032;-71
2023/01/28 11:59:18;;;;;;;4.82;2.10;;;12.20;45.10;;;;;;4920597;29;20020;-70
2023/01/28 12:02:07;;;;;;;8.13;2.15;;;11.90;46.50;;;;;;4921510;29;20031;-71
2023/01/28 12:04:38;;;;;;;6.05;2.33;;;11.20;45.50;;;;;;4937958;28;20097;-71
2023/01/28 12:07:06;;;;;;;6.78;2.10;;;11.40;47.00;;;;;;4935273;29;20036;-71
2023/01/28 12:09:48;;;;;;;6.07;1.90;;;11.40;48.80;;;;;;4921209;29;20126;-71
2023/01/28 12:12:29;;;;;;;4.30;2.15;;;11.50;48.00;;;;;;4920809;29;20032;-71
2023/01/28 12:15:19;;;;;;;2.95;2.08;;;11.70;46.00;;;;;;4921403;29;20574;-71
2023/01/28 12:17:48;;;;;;;3.90;2.30;;;12.20;47.40;;;;;;4921101;29;20039;-72
2023/01/28 12:20:26;;;;;;;4.07;2.30;;;11.90;45.60;;;;;;4928413;29;20058;-71
2023/01/28 12:23:12;;;;;;;5.45;2.10;;;11.90;47.20;;;;;;4926004;29;20424;-72
2023/01/28 12:25:57;;;;;;;4.50;2.22;;;12.10;47.80;;;;;;4919702;29;20039;-71
2023/01/28 12:28:36;;;;;;;5.30;2.55;;;12.50;46.00;;;;;;4916888;29;20455;-72
2023/01/28 12:31:36;;;;;;;5.78;2.53;;;12.70;44.80;;;;;;4921121;29;20634;-73
2023/01/28 12:34:30;;;;;;;3.45;2.05;;;12.70;47.30;;;;;;4921122;29;20035;-72
2023/01/28 12:37:04;;;;;;;3.90;2.45;;;12.70;45.00;;;;;;4920128;29;20035;-72
2023/01/28 12:39:56;;;;;;;5.20;2.60;;;12.70;48.50;;;;;;4920723;29;20099;-72
2023/01/28 12:42:36;;;;;;;4.70;2.85;;;12.00;44.70;;;;;;4920151;29;20066;-72
2023/01/28 12:45:17;;;;;;;5.43;2.83;;;12.20;46.40;;;;;;4921293;29;20124;-72
2023/01/28 12:48:12;;;;;;;4.22;2.92;;;11.90;46.30;;;;;;4921122;29;20032;-72
2023/01/28 12:50:52;;;;;;;3.70;2.42;;;11.50;48.50;;;;;;4917085;29;20067;-72
2023/01/28 12:53:33;;;;;;;4.80;2.40;;;11.70;48.40;;;;;;4920078;29;20019;-72
2023/01/28 12:56:22;;;;;;;4.20;2.55;;;11.40;47.20;;;;;;4901479;29;20849;-72
2023/01/28 12:58:59;;;;;;;5.22;2.33;;;11.40;47.90;;;;;;4917284;29;20123;-71
2023/01/28 13:01:41;;;;;;;6.90;3.03;;;11.60;48.90;;;;;;4921050;29;20051;-72
2023/01/28 13:04:28;;;;;;;4.40;3.13;;;11.70;50.30;;;;;;4920831;29;20397;-72
2023/01/28 13:07:13;;;;;;;4.10;2.55;;;11.50;48.90;;;;;;4918400;29;20028;-72
2023/01/28 13:09:47;;;;;;;5.22;2.97;;;11.50;50.10;;;;;;4917331;29;20058;-72
2023/01/28 13:12:12;;;;;;;4.55;2.80;;;10.50;50.00;;;;;;4934887;29;20023;-72
2023/01/28 13:14:39;;;;;;;5.15;2.83;;;10.80;51.90;;;;;;4940386;28;20434;-72
2023/01/28 13:17:33;;;;;;;5.57;3.22;;;10.70;50.20;;;;;;4942215;28;20031;-72
2023/01/28 13:19:59;;;;;;;7.65;3.65;;;10.60;52.40;;;;;;4943591;29;20031;-72
2023/01/28 13:22:34;;;;;;;6.90;3.20;;;10.80;53.10;;;;;;4942635;29;20038;-72
2023/01/28 13:25:23;;;;;;;6.43;3.25;;;10.90;51.80;;;;;;4924985;29;20468;-71
2023/01/28 13:28:00;;;;;;;4.57;2.65;;;10.90;52.90;;;;;;4924333;29;20122;-72
2023/01/28 13:30:32;;;;;;;5.75;2.92;;;10.50;51.10;;;;;;4925426;29;20036;-72
2023/01/28 13:32:59;;;;;;;;;;;10.10;52.70;;;;;;4925170;29;20072;-71
2023/01/28 13:35:37;;;;;;;6.97;3.47;;;10.10;53.70;;;;;;4924577;29;19911;-71